Time;durP1;ratioP1;P1;durP2;ratioP2;P2;SDS_P1;SDS_P2;PMS_P1;PMS_P2;Temp;Humidity;BMP_temperature;BMP_pressure;BME280_temperature;BME280_humidity;BME280_pressure;Samples;Min_cycle;Max_cycle;Signal;HPM_P1;HPM_P2
2023/01/23 00:04:13;;;;;;;33.40;16.50;;;;;;;0.68;90.89;101497.27;207573;1290;140081;-65
2023/01/23 00:09:17;;;;;;;40.70;17.60;;;;;;;0.68;90.95;101505.85;208776;1296;142203;-66
2023/01/23 00:14:20;;;;;;;33.40;16.70;;;;;;;0.72;90.70;101515.70;207200;1291;142769;-66
2023/01/23 00:19:24;;;;;;;38.60;17.80;;;;;;;0.74;90.77;101520.77;207668;1287;140084;-63
2023/01/23 00:24:26;;;;;;;41.40;20.60;;;;;;;0.74;90.60;101517.44;207357;1290;139901;-63
2023/01/23 00:29:29;;;;;;;31.10;17.60;;;;;;;0.76;90.64;101518.30;208798;1287;207637;-63
2023/01/23 00:34:37;;;;;;;41.70;19.30;;;;;;;0.74;90.48;101515.31;207901;1297;140071;-61
2023/01/23 00:39:39;;;;;;;30.30;14.50;;;;;;;0.68;90.64;101520.35;209089;1290;139209;-62
2023/01/23 00:44:41;;;;;;;34.50;15.40;;;;;;;0.74;90.81;101534.98;209605;1297;140209;-64
2023/01/23 00:49:43;;;;;;;38.30;16.60;;;;;;;0.77;90.88;101544.13;210115;1298;140571;-62
2023/01/23 00:54:45;;;;;;;37.40;16.50;;;;;;;0.80;91.01;101551.09;210207;1296;139811;-63
2023/01/23 00:59:47;;;;;;;36.30;17.60;;;;;;;0.84;90.65;101547.80;208377;1295;140111;-64
2023/01/23 01:04:50;;;;;;;31.90;18.20;;;;;;;0.85;90.74;101546.84;209030;1291;141446;-61
2023/01/23 01:09:52;;;;;;;35.70;16.00;;;;;;;0.81;90.70;101544.19;208288;1291;139889;-63
2023/01/23 01:14:55;;;;;;;38.30;19.50;;;;;;;0.82;90.81;101539.03;208254;1298;139885;-65
2023/01/23 01:19:57;;;;;;;34.60;17.00;;;;;;;0.77;90.56;101535.36;207362;1298;140177;-66
2023/01/23 01:25:00;;;;;;;37.80;17.30;;;;;;;0.74;90.78;101543.85;208170;1289;139636;-64
2023/01/23 01:30:09;;;;;;;39.00;17.80;;;;;;;0.79;90.61;101542.09;208486;1305;140913;-62
2023/01/23 01:35:12;;;;;;;41.00;18.30;;;;;;;0.74;90.34;101539.30;207664;1294;140042;-61
2023/01/23 01:40:20;;;;;;;39.60;18.40;;;;;;;0.71;90.95;101557.44;207839;1298;247737;-65
2023/01/23 01:46:01;;;;;;;38.40;17.10;;;;;;;0.69;90.30;101558.63;207569;1298;140573;-63
2023/01/23 01:51:29;;;;;;;36.10;17.40;;;;;;;0.66;90.69;101567.63;209144;1290;139907;-65
2023/01/23 01:56:39;;;;;;;34.60;17.30;;;;;;;0.63;91.08;101568.23;207332;1297;139185;-66
2023/01/23 02:01:46;;;;;;;41.50;17.50;;;;;;;0.60;90.61;101569.91;208118;1291;140160;-65
2023/01/23 02:06:51;;;;;;;45.20;19.60;;;;;;;0.62;90.72;101573.39;207964;1291;141115;-68
2023/01/23 02:11:54;;;;;;;34.10;16.50;;;;;;;0.59;90.93;101565.56;208176;1291;140083;-67
2023/01/23 02:17:00;;;;;;;43.10;16.60;;;;;;;0.55;90.93;101563.64;208048;1291;139660;-66
2023/01/23 02:22:33;;;;;;;36.40;14.90;;;;;;;0.58;90.58;101557.44;208413;1291;140604;-66
2023/01/23 02:27:37;;;;;;;36.60;16.10;;;;;;;0.61;91.02;101570.85;209746;1298;139809;-66
2023/01/23 02:32:39;;;;;;;41.60;19.60;;;;;;;0.65;90.97;101583.44;208149;1297;139403;-65
2023/01/23 02:37:45;;;;;;;39.30;17.00;;;;;;;0.66;91.16;101594.05;209001;1291;139798;-66
2023/01/23 02:42:49;;;;;;;46.90;22.40;;;;;;;0.74;91.17;101596.16;209951;1297;140291;-67
2023/01/23 02:47:51;;;;;;;35.80;17.70;;;;;;;0.78;91.05;101597.96;209129;1297;140923;-64
2023/01/23 02:52:54;;;;;;;43.00;19.70;;;;;;;0.79;91.00;101606.10;210192;1297;139922;-64
2023/01/23 03:00:14;;;;;;;36.00;17.30;;;;;;;0.86;90.79;101612.88;210014;1297;142206;-64
2023/01/23 03:03:20;;;;;;;42.30;18.90;;;;;;;0.88;91.10;101615.16;209004;1298;141504;-65
2023/01/23 03:08:32;;;;;;;32.80;16.70;;;;;;;0.89;91.35;101621.22;209105;1299;139853;-66
2023/01/23 03:13:34;;;;;;;35.20;18.90;;;;;;;0.96;91.19;101623.55;209243;1289;139329;-64
2023/01/23 03:18:36;;;;;;;38.30;18.70;;;;;;;0.98;90.79;101627.29;209485;1299;140048;-65
2023/01/23 03:23:56;;;;;;;45.80;20.50;;;;;;;0.96;90.82;101629.66;208617;1299;140183;-65
2023/01/23 03:34:21;;;;;;;34.50;21.10;;;;;;;1.03;90.80;101630.19;207917;1303;139603;-65
2023/01/23 03:44:47;;;;;;;39.20;16.60;;;;;;;0.94;90.83;101622.17;207499;1291;221992;-65
2023/01/23 03:49:51;;;;;;;39.70;17.90;;;;;;;0.90;90.45;101617.10;207429;1298;141708;-65
2023/01/23 03:54:53;;;;;;;39.60;18.60;;;;;;;0.83;90.84;101610.86;207368;1297;154743;-64
2023/01/23 03:59:57;;;;;;;41.10;18.40;;;;;;;0.80;91.03;101611.44;208366;1297;139383;-65
2023/01/23 04:04:59;;;;;;;47.90;18.50;;;;;;;0.78;90.94;101613.71;208137;1299;139957;-65
2023/01/23 04:10:02;;;;;;;41.80;19.70;;;;;;;0.77;91.12;101619.96;208459;1291;140802;-64
2023/01/23 04:15:05;;;;;;;35.90;16.10;;;;;;;0.78;90.80;101618.30;207170;1291;142747;-65
2023/01/23 04:20:09;;;;;;;44.70;16.20;;;;;;;0.76;90.60;101624.39;207327;1291;141555;-64
2023/01/23 04:25:12;;;;;;;32.50;17.20;;;;;;;0.78;90.64;101615.47;208138;1303;140535;-65
2023/01/23 04:30:14;;;;;;;49.00;20.00;;;;;;;0.76;90.94;101614.44;209325;1291;139218;-65
2023/01/23 04:35:17;;;;;;;36.90;14.50;;;;;;;0.70;90.86;101621.70;210235;1297;139545;-65
2023/01/23 04:40:20;;;;;;;35.60;16.30;;;;;;;0.75;90.55;101626.89;210070;1304;140574;-65
2023/01/23 04:45:23;;;;;;;34.00;18.10;;;;;;;0.85;91.32;101633.13;209996;1287;150901;-66
2023/01/23 04:50:26;;;;;;;32.50;18.70;;;;;;;0.87;90.65;101636.77;209383;1289;139560;-67
2023/01/23 04:55:28;;;;;;;34.20;15.40;;;;;;;0.83;90.73;101636.42;210027;1303;140143;-66
2023/01/23 05:00:32;;;;;;;34.20;17.10;;;;;;;0.86;90.50;101642.86;208853;1289;140385;-65
2023/01/23 05:05:35;;;;;;;37.60;18.20;;;;;;;0.89;90.63;101646.95;210115;1298;140944;-64
2023/01/23 05:10:37;;;;;;;33.00;15.80;;;;;;;0.92;90.64;101648.59;208702;1289;141526;-63
2023/01/23 05:15:40;;;;;;;37.00;17.20;;;;;;;0.95;90.39;101653.23;208033;1303;141967;-65
2023/01/23 05:20:43;;;;;;;33.70;16.50;;;;;;;0.94;90.41;101660.16;208670;1305;140790;-64
2023/01/23 05:25:46;;;;;;;30.10;13.80;;;;;;;0.91;90.88;101667.40;207636;1301;140067;-64
2023/01/23 05:30:49;;;;;;;33.50;16.70;;;;;;;0.88;90.91;101671.56;208692;1287;140929;-65
2023/01/23 05:35:51;;;;;;;32.00;15.80;;;;;;;0.89;90.69;101673.52;208309;1287;139854;-64
2023/01/23 05:40:54;;;;;;;28.30;15.60;;;;;;;0.87;90.47;101680.20;207507;1290;141797;-63
2023/01/23 05:46:00;;;;;;;34.00;16.30;;;;;;;0.79;90.44;101691.31;207533;1296;141208;-63
2023/01/23 05:51:03;;;;;;;29.20;14.20;;;;;;;0.74;90.64;101695.94;207621;1293;140238;-63
2023/01/23 05:56:07;;;;;;;33.10;14.60;;;;;;;0.75;90.96;101701.83;208589;1290;141036;-63
2023/01/23 06:01:09;;;;;;;35.00;17.20;;;;;;;0.79;91.20;101716.52;207515;1289;140685;-66
2023/01/23 06:06:11;;;;;;;33.90;17.80;;;;;;;0.80;91.03;101728.56;207564;1291;141882;-62
2023/01/23 06:11:14;;;;;;;33.90;17.20;;;;;;;0.77;91.12;101735.80;208588;1291;140955;-65
2023/01/23 06:16:16;;;;;;;36.60;17.70;;;;;;;0.75;90.72;101736.63;208716;1300;140067;-64
2023/01/23 06:21:18;;;;;;;28.40;17.20;;;;;;;0.76;90.85;101745.14;208467;1303;139125;-62
2023/01/23 06:26:21;;;;;;;28.50;14.30;;;;;;;0.73;90.82;101759.21;208543;1298;139232;-63
2023/01/23 06:31:23;;;;;;;39.10;15.40;;;;;;;0.73;90.91;101764.59;209391;1291;140217;-63
2023/01/23 06:36:26;;;;;;;33.40;15.60;;;;;;;0.73;90.77;101770.44;209818;1298;141755;-63
2023/01/23 06:41:28;;;;;;;34.10;14.90;;;;;;;0.76;90.96;101775.80;207922;1291;139710;-63
2023/01/23 06:46:31;;;;;;;34.10;15.50;;;;;;;0.75;90.72;101787.05;209403;1299;140182;-65
2023/01/23 06:51:33;;;;;;;29.70;17.60;;;;;;;0.75;90.85;101790.38;208778;1289;141251;-66
2023/01/23 06:56:36;;;;;;;33.20;20.20;;;;;;;0.78;90.90;101798.38;209482;1304;140406;-65
2023/01/23 07:01:40;;;;;;;29.90;13.70;;;;;;;0.81;91.29;101804.41;207708;1288;142088;-65
2023/01/23 07:06:43;;;;;;;34.20;18.00;;;;;;;0.88;91.24;101802.15;208022;1296;140674;-65
2023/01/23 07:11:50;;;;;;;39.20;18.40;;;;;;;0.89;91.25;101806.56;208511;1303;139680;-65
2023/01/23 07:16:54;;;;;;;29.50;15.90;;;;;;;0.91;91.27;101815.48;208300;1303;140201;-65
2023/01/23 07:21:59;;;;;;;29.40;14.20;;;;;;;0.95;90.99;101815.84;208380;1295;141617;-66
2023/01/23 07:27:05;;;;;;;34.40;15.10;;;;;;;0.95;91.10;101823.90;208032;1302;139438;-66
2023/01/23 07:32:11;;;;;;;29.60;14.70;;;;;;;0.93;91.12;101829.17;208172;1296;139170;-66
2023/01/23 07:37:14;;;;;;;35.00;14.40;;;;;;;0.97;91.11;101830.92;207372;1289;140033;-66
2023/01/23 07:42:17;;;;;;;33.50;15.30;;;;;;;1.04;91.22;101838.11;208222;1293;140256;-67
2023/01/23 07:47:21;;;;;;;39.20;17.60;;;;;;;1.04;91.20;101832.50;207383;1287;139628;-67
2023/01/23 07:52:25;;;;;;;31.70;15.10;;;;;;;1.06;90.82;101826.60;207591;1298;139130;-67
2023/01/23 07:57:27;;;;;;;26.10;13.80;;;;;;;1.07;90.95;101824.10;208145;1296;139339;-68
2023/01/23 08:02:33;;;;;;;35.00;16.90;;;;;;;1.05;90.93;101832.60;208749;1293;139204;-67
2023/01/23 08:07:39;;;;;;;33.60;14.50;;;;;;;1.07;90.91;101841.27;208452;1296;140436;-67
2023/01/23 08:12:41;;;;;;;37.90;18.80;;;;;;;1.14;90.99;101848.52;209062;1284;140865;-66
2023/01/23 08:17:43;;;;;;;35.90;15.90;;;;;;;1.19;91.14;101843.95;207872;1287;140387;-66
2023/01/23 08:22:46;;;;;;;35.80;15.50;;;;;;;1.24;90.85;101848.45;209257;1297;139616;-69
2023/01/23 08:27:48;;;;;;;34.50;15.50;;;;;;;1.28;91.07;101853.13;207354;1296;140185;-68
2023/01/23 08:32:50;;;;;;;36.30;17.00;;;;;;;1.31;90.66;101855.70;209102;1296;140373;-68
2023/01/23 08:37:53;;;;;;;29.00;15.60;;;;;;;1.31;90.51;101858.57;209896;1298;139721;-68
2023/01/23 08:42:56;;;;;;;36.30;15.70;;;;;;;1.33;90.51;101855.42;208647;1293;139861;-68
2023/01/23 08:48:01;;;;;;;34.20;16.20;;;;;;;1.38;90.53;101861.34;209127;1298;517727;-68
2023/01/23 08:53:05;;;;;;;30.20;17.40;;;;;;;1.44;90.53;101860.66;207665;1288;139471;-69
2023/01/23 08:58:11;;;;;;;40.20;18.10;;;;;;;1.51;90.80;101864.79;207813;1288;141454;-68
2023/01/23 09:03:14;;;;;;;38.40;19.20;;;;;;;1.64;90.95;101866.33;207876;1291;139795;-66
2023/01/23 09:08:16;;;;;;;36.10;18.70;;;;;;;1.69;90.48;101868.72;207323;1288;150466;-67
2023/01/23 09:13:18;;;;;;;30.80;15.00;;;;;;;1.67;90.31;101874.65;207129;1289;159052;-67
2023/01/23 09:18:24;;;;;;;36.80;16.10;;;;;;;1.63;90.02;101878.55;207271;1288;140481;-66
2023/01/23 09:23:26;;;;;;;33.10;16.90;;;;;;;1.65;90.60;101878.86;207275;1296;141310;-67
2023/01/23 09:28:29;;;;;;;28.40;14.40;;;;;;;1.64;90.11;101877.27;208103;1289;139084;-66
2023/01/23 09:33:32;;;;;;;29.10;15.50;;;;;;;1.66;90.23;101879.00;207192;1297;140485;-66
2023/01/23 09:38:35;;;;;;;32.00;16.50;;;;;;;1.73;89.99;101876.85;207025;1297;152179;-65
2023/01/23 09:44:06;;;;;;;33.00;16.70;;;;;;;1.76;90.36;101881.37;207791;1291;140632;-66
2023/01/23 09:49:33;;;;;;;31.20;16.70;;;;;;;1.78;89.97;101883.64;207315;1290;139513;-65
2023/01/23 09:54:48;;;;;;;34.40;17.40;;;;;;;1.83;89.96;101885.36;208870;1296;140393;-64
2023/01/23 09:59:58;;;;;;;35.90;18.60;;;;;;;1.85;90.03;101887.60;208812;1296;140015;-64
2023/01/23 10:05:03;;;;;;;30.40;14.90;;;;;;;1.86;89.93;101881.19;208745;1295;139870;-65
2023/01/23 10:10:45;;;;;;;36.70;15.60;;;;;;;1.89;89.86;101886.55;208438;1288;140145;-65
2023/01/23 10:16:22;;;;;;;39.00;21.10;;;;;;;1.93;89.80;101889.23;209005;1290;246935;-64
2023/01/23 10:21:41;;;;;;;35.70;17.60;;;;;;;1.95;89.88;101886.03;209837;1297;140416;-65
2023/01/23 10:26:46;;;;;;;30.20;17.20;;;;;;;2.03;89.60;101876.08;210177;1282;140685;-66
2023/01/23 10:32:00;;;;;;;31.30;14.20;;;;;;;2.11;89.40;101870.70;210112;1296;140982;-66
2023/01/23 10:37:56;;;;;;;33.20;16.40;;;;;;;2.18;89.33;101873.98;210115;1305;144330;-68
2023/01/23 10:43:01;;;;;;;31.70;14.50;;;;;;;2.26;89.65;101872.94;208322;1297;140724;-69
2023/01/23 10:48:27;;;;;;;43.30;19.70;;;;;;;2.31;89.37;101871.78;208300;1295;139996;-67
2023/01/23 10:53:30;;;;;;;37.00;16.10;;;;;;;2.31;89.06;101868.19;208096;1296;140762;-67
2023/01/23 10:58:42;;;;;;;28.60;13.40;;;;;;;2.26;89.04;101866.06;208568;1297;139418;-66
2023/01/23 11:03:45;;;;;;;26.10;13.90;;;;;;;2.18;89.06;101861.83;207696;1280;247375;-66
2023/01/23 11:08:55;;;;;;;28.50;12.90;;;;;;;2.10;88.88;101856.39;207545;1281;140592;-66
2023/01/23 11:14:11;;;;;;;24.90;13.70;;;;;;;2.00;88.67;101848.86;208383;1287;141399;-65
2023/01/23 11:25:55;;;;;;;31.10;15.60;;;;;;;2.01;89.32;101844.36;208484;1296;374677;-62
2023/01/23 11:31:10;;;;;;;31.40;14.40;;;;;;;2.05;88.96;101844.44;208873;1296;141116;-62
2023/01/23 11:36:18;;;;;;;32.80;15.50;;;;;;;2.14;89.42;101845.74;207821;1288;221595;-65
2023/01/23 11:41:34;;;;;;;28.90;14.70;;;;;;;2.19;88.98;101844.91;207774;1283;139725;-62
2023/01/23 11:47:16;;;;;;;33.20;16.80;;;;;;;2.21;88.89;101846.39;208220;1288;144334;-62
2023/01/23 11:52:43;;;;;;;30.00;17.10;;;;;;;2.21;89.00;101845.12;206423;1297;139290;-62
2023/01/23 11:58:18;;;;;;;32.50;14.40;;;;;;;2.23;89.19;101838.67;208187;1290;139904;-63
2023/01/23 12:03:36;;;;;;;27.30;14.10;;;;;;;2.28;88.81;101836.27;208586;1280;142440;-63
2023/01/23 12:08:55;;;;;;;24.30;13.70;;;;;;;2.29;88.89;101832.69;208527;1298;140687;-66
2023/01/23 12:14:13;;;;;;;23.90;12.80;;;;;;;2.21;88.49;101827.27;207688;1296;139866;-63
2023/01/23 12:19:33;;;;;;;24.70;15.70;;;;;;;2.14;88.41;101826.05;208061;1288;139996;-65
2023/01/23 12:24:58;;;;;;;29.80;16.90;;;;;;;2.15;88.71;101827.74;208546;1288;141119;-64
2023/01/23 12:30:16;;;;;;;34.20;14.40;;;;;;;2.14;88.76;101831.88;208896;1296;141726;-62
2023/01/23 12:35:31;;;;;;;29.80;14.80;;;;;;;2.08;88.75;101833.98;209516;1281;141288;-67
2023/01/23 12:40:46;;;;;;;25.10;14.90;;;;;;;2.03;88.41;101838.07;207034;1289;140000;-68
2023/01/23 12:45:58;;;;;;;31.00;15.70;;;;;;;2.01;88.63;101837.02;207087;1288;140031;-66
2023/01/23 12:51:29;;;;;;;35.50;14.70;;;;;;;1.98;88.70;101835.66;207458;1290;141653;-65
2023/01/23 12:56:36;;;;;;;31.90;15.50;;;;;;;1.94;88.67;101840.59;209951;1297;141621;-66
2023/01/23 13:01:54;;;;;;;29.80;13.90;;;;;;;1.94;88.98;101847.70;210026;1297;140002;-67
2023/01/23 13:07:08;;;;;;;38.30;16.80;;;;;;;1.91;88.40;101845.52;207740;1291;140853;-66
2023/01/23 13:12:18;;;;;;;35.70;17.70;;;;;;;1.85;88.78;101850.29;209062;1297;140654;-63
2023/01/23 13:17:37;;;;;;;46.20;19.30;;;;;;;1.82;88.97;101853.52;208996;1290;244870;-64
2023/01/23 13:22:40;;;;;;;42.50;16.90;;;;;;;1.78;88.72;101858.96;208872;1290;140658;-67
2023/01/23 13:27:56;;;;;;;63.60;35.80;;;;;;;1.72;88.86;101860.08;208637;1288;141845;-65
2023/01/23 13:33:38;;;;;;;34.40;17.00;;;;;;;1.75;89.13;101859.22;208862;1296;140636;-65
2023/01/23 13:44:28;;;;;;;44.60;18.50;;;;;;;1.70;88.75;101862.41;210527;1290;140237;-65
2023/01/23 13:50:05;;;;;;;49.60;21.70;;;;;;;1.66;88.87;101864.80;210189;1298;141041;-65
2023/01/23 14:06:49;;;;;;;48.80;22.90;;;;;;;1.43;89.00;101881.77;207296;1306;140666;-65
2023/01/23 14:12:06;;;;;;;50.60;26.70;;;;;;;1.41;89.21;101884.17;207438;1318;141731;-63
2023/01/23 14:17:24;;;;;;;55.40;23.30;;;;;;;1.39;89.25;101885.55;206685;1320;140792;-64
2023/01/23 14:22:43;;;;;;;56.30;24.10;;;;;;;1.36;89.45;101886.65;208290;1326;142087;-67
2023/01/23 14:27:45;;;;;;;47.10;22.80;;;;;;;1.39;89.52;101888.54;208186;1330;141646;-68
2023/01/23 14:33:00;;;;;;;51.70;23.90;;;;;;;1.42;89.55;101888.99;208505;1324;141232;-68
2023/01/23 14:38:06;;;;;;;44.30;20.50;;;;;;;1.40;89.11;101888.80;207342;1311;140283;-66
2023/01/23 14:43:19;;;;;;;54.10;26.30;;;;;;;1.34;89.35;101890.02;209509;1301;141370;-65
2023/01/23 14:48:22;;;;;;;48.20;25.30;;;;;;;1.33;89.33;101891.44;210390;1299;139906;-66
2023/01/23 14:53:26;;;;;;;56.00;24.80;;;;;;;1.32;89.39;101892.64;211004;1300;140845;-64
2023/01/23 14:58:30;;;;;;;52.30;27.90;;;;;;;1.29;89.36;101889.02;211412;1300;142173;-66
2023/01/23 15:03:49;;;;;;;52.30;25.10;;;;;;;1.33;89.57;101891.48;210046;1284;139590;-65
2023/01/23 15:08:53;;;;;;;51.00;23.00;;;;;;;1.32;89.65;101889.48;211186;1300;140248;-66
2023/01/23 15:14:00;;;;;;;45.70;20.70;;;;;;;1.28;89.61;101891.34;209863;1294;140663;-66
2023/01/23 15:19:21;;;;;;;57.40;25.50;;;;;;;1.26;89.76;101891.15;210872;1291;139771;-66
2023/01/23 15:24:27;;;;;;;42.40;22.00;;;;;;;1.25;89.58;101898.41;209867;1294;139912;-66
2023/01/23 15:29:32;;;;;;;44.70;22.90;;;;;;;1.20;89.36;101904.44;210805;1287;141371;-65
2023/01/23 15:34:35;;;;;;;43.70;23.20;;;;;;;1.21;89.86;101906.11;209892;1306;140416;-66
2023/01/23 15:39:38;;;;;;;45.20;23.90;;;;;;;1.23;89.58;101906.66;210553;1300;140203;-64
2023/01/23 15:44:45;;;;;;;40.50;22.50;;;;;;;1.24;89.40;101904.63;210511;1299;140189;-64
2023/01/23 15:49:49;;;;;;;44.80;24.30;;;;;;;1.22;90.00;101904.76;210434;1300;140268;-61
2023/01/23 15:54:57;;;;;;;46.00;20.80;;;;;;;1.19;89.63;101908.93;210460;1290;139480;-63
2023/01/23 16:00:01;;;;;;;46.10;22.10;;;;;;;1.15;89.71;101909.55;211342;1290;140535;-63
2023/01/23 16:05:08;;;;;;;45.40;22.00;;;;;;;1.17;89.65;101911.89;210462;1284;141511;-65
2023/01/23 16:10:23;;;;;;;44.00;25.10;;;;;;;1.20;89.98;101913.04;212545;1284;140044;-64
2023/01/23 16:15:29;;;;;;;43.90;24.50;;;;;;;1.20;89.68;101914.40;211833;1298;141064;-66
2023/01/23 16:20:42;;;;;;;53.10;22.60;;;;;;;1.23;89.69;101914.19;210078;1304;140555;-66
2023/01/23 16:25:45;;;;;;;50.20;24.80;;;;;;;1.23;89.32;101924.70;212826;1293;140020;-68
2023/01/23 16:30:50;;;;;;;43.40;21.80;;;;;;;1.23;89.60;101931.84;212840;1294;140408;-66
2023/01/23 16:35:55;;;;;;;42.60;20.60;;;;;;;1.23;89.86;101932.58;212945;1290;140423;-65
2023/01/23 16:41:00;;;;;;;48.40;23.10;;;;;;;1.28;89.22;101931.11;210276;1290;140091;-67
2023/01/23 16:46:03;;;;;;;44.60;26.70;;;;;;;1.31;89.82;101934.05;212367;1299;140230;-67
2023/01/23 16:51:14;;;;;;;48.40;23.60;;;;;;;1.27;89.37;101930.66;211497;1299;139759;-66
2023/01/23 16:56:22;;;;;;;47.90;21.70;;;;;;;1.24;89.31;101938.48;211014;1299;140768;-66
2023/01/23 17:01:27;;;;;;;40.90;23.30;;;;;;;1.19;89.28;101940.27;210140;1291;139475;-63
2023/01/23 17:06:31;;;;;;;47.10;24.30;;;;;;;1.11;89.06;101943.36;210950;1297;139143;-66
2023/01/23 17:11:41;;;;;;;50.40;24.20;;;;;;;1.07;89.50;101942.62;211276;1285;140017;-63
2023/01/23 17:16:46;;;;;;;41.40;23.30;;;;;;;1.06;89.41;101943.19;210363;1294;139520;-70
2023/01/23 17:21:49;;;;;;;54.30;23.90;;;;;;;0.97;89.44;101948.91;210651;1285;140353;-64
2023/01/23 17:26:53;;;;;;;46.80;24.20;;;;;;;0.98;89.57;101949.36;210467;1297;139394;-67
2023/01/23 17:31:57;;;;;;;46.30;25.70;;;;;;;1.02;89.72;101953.31;210666;1290;141346;-66
2023/01/23 17:37:11;;;;;;;50.80;24.80;;;;;;;0.99;89.87;101955.12;211021;1294;139493;-66
2023/01/23 17:42:16;;;;;;;46.00;23.10;;;;;;;0.97;89.86;101951.94;212717;1298;139508;-68
2023/01/23 17:47:19;;;;;;;48.40;24.30;;;;;;;1.00;89.72;101954.12;212772;1301;140764;-65
2023/01/23 17:52:23;;;;;;;32.60;20.20;;;;;;;1.03;89.85;101953.27;211469;1290;140109;-65
2023/01/23 17:57:26;;;;;;;40.20;20.60;;;;;;;1.01;89.71;101954.57;211510;1291;139525;-64
2023/01/23 18:02:32;;;;;;;43.50;21.00;;;;;;;1.05;89.57;101962.05;211063;1295;140730;-64
2023/01/23 18:07:37;;;;;;;43.20;24.30;;;;;;;1.06;89.78;101963.86;212267;1279;140164;-66
2023/01/23 18:13:20;;;;;;;50.80;22.20;;;;;;;1.08;89.91;101966.35;212368;1290;139555;-65
2023/01/23 18:18:36;;;;;;;36.60;20.00;;;;;;;1.16;89.85;101966.44;212760;1285;140680;-66
2023/01/23 18:23:39;;;;;;;41.40;22.70;;;;;;;1.13;89.52;101968.95;211511;1284;141073;-67
2023/01/23 18:28:59;;;;;;;46.70;21.60;;;;;;;1.15;90.18;101973.50;210899;1297;151719;-66
2023/01/23 18:34:05;;;;;;;44.10;22.60;;;;;;;1.16;89.33;101969.56;210249;1289;139523;-64
2023/01/23 18:39:24;;;;;;;44.00;24.60;;;;;;;1.11;89.70;101966.08;212376;1293;141065;-66
2023/01/23 18:44:32;;;;;;;48.90;24.90;;;;;;;1.09;89.52;101966.95;212496;1284;140042;-66
2023/01/23 18:49:35;;;;;;;44.00;22.20;;;;;;;1.12;89.80;101969.70;211313;1297;139920;-65
2023/01/23 18:54:48;;;;;;;41.30;23.40;;;;;;;1.15;89.93;101968.58;210653;1291;139866;-66
2023/01/23 18:59:57;;;;;;;47.90;26.80;;;;;;;1.13;89.89;101962.83;211264;1294;142555;-64
2023/01/23 19:05:13;;;;;;;52.90;26.50;;;;;;;1.14;89.87;101964.84;210626;1291;139860;-64
2023/01/23 19:10:23;;;;;;;51.60;29.10;;;;;;;1.14;90.20;101969.54;210568;1291;140533;-65
2023/01/23 19:15:29;;;;;;;43.90;23.40;;;;;;;1.08;89.81;101969.98;210430;1294;139597;-65
2023/01/23 19:20:56;;;;;;;47.40;25.80;;;;;;;1.08;89.99;101969.10;211565;1298;139700;-65
2023/01/23 19:26:02;;;;;;;52.70;25.40;;;;;;;1.11;89.83;101973.11;211648;1304;140171;-67
2023/01/23 19:31:08;;;;;;;42.80;22.80;;;;;;;1.05;89.58;101979.00;210559;1293;139159;-68
2023/01/23 19:36:13;;;;;;;46.60;21.90;;;;;;;1.04;90.05;101973.63;210409;1297;139419;-64
2023/01/23 19:41:23;;;;;;;47.60;24.60;;;;;;;1.08;89.86;101972.80;210918;1290;140460;-65
2023/01/23 19:46:31;;;;;;;48.70;25.90;;;;;;;1.03;89.96;101975.46;210822;1299;140557;-65
2023/01/23 19:51:34;;;;;;;51.90;23.90;;;;;;;1.01;90.11;101975.98;211496;1297;139434;-66
2023/01/23 19:56:38;;;;;;;43.30;23.50;;;;;;;1.04;89.89;101976.83;211400;1293;140289;-67
2023/01/23 20:01:48;;;;;;;35.30;18.40;;;;;;;1.05;89.79;101978.49;211913;1298;140739;-67
2023/01/23 20:06:51;;;;;;;53.30;24.00;;;;;;;1.01;89.91;101975.59;212122;1298;139939;-66
2023/01/23 20:11:56;;;;;;;47.80;22.50;;;;;;;1.06;90.00;101975.97;210600;1299;140758;-66
2023/01/23 20:16:59;;;;;;;40.80;23.60;;;;;;;1.05;89.62;101976.55;212881;1291;139539;-67
2023/01/23 20:22:02;;;;;;;41.00;22.40;;;;;;;1.03;89.85;101976.38;211756;1291;139834;-67
2023/01/23 20:27:05;;;;;;;46.70;21.30;;;;;;;1.04;90.17;101973.66;211900;1300;228583;-67
2023/01/23 20:32:08;;;;;;;42.70;21.60;;;;;;;1.10;89.72;101980.02;212205;1288;141159;-67
2023/01/23 20:37:10;;;;;;;42.00;23.30;;;;;;;1.11;89.49;101982.77;212222;1304;141173;-67
2023/01/23 20:42:15;;;;;;;47.80;25.20;;;;;;;1.09;89.77;101980.42;210304;1298;140131;-66
2023/01/23 20:47:19;;;;;;;48.80;23.70;;;;;;;1.14;90.09;101982.01;210686;1297;1237906;-66
2023/01/23 21:03:06;;;;;;;45.10;23.30;;;;;;;1.15;89.60;101987.52;210503;1291;139492;-66
2023/01/23 21:08:09;;;;;;;56.80;26.30;;;;;;;1.16;89.82;101990.27;210251;1298;140503;-65
2023/01/23 21:13:14;;;;;;;47.40;24.20;;;;;;;1.15;89.71;101989.94;210224;1284;139891;-65
2023/01/23 21:18:16;;;;;;;52.50;23.50;;;;;;;1.08;89.70;101989.64;211059;1290;139264;-66
2023/01/23 21:23:19;;;;;;;43.20;21.50;;;;;;;1.07;89.98;101989.16;210219;1284;140269;-64
2023/01/23 21:28:21;;;;;;;46.90;23.80;;;;;;;1.09;89.84;101985.89;210966;1291;139457;-66
2023/01/23 21:33:24;;;;;;;46.20;24.80;;;;;;;1.09;90.25;101985.91;210534;1291;139868;-65
2023/01/23 21:38:27;;;;;;;46.20;22.10;;;;;;;1.03;90.24;101987.33;211040;1297;139409;-66
2023/01/23 21:43:29;;;;;;;44.50;23.50;;;;;;;1.02;89.62;101985.52;211437;1304;141106;-65
2023/01/23 21:48:32;;;;;;;48.50;24.70;;;;;;;1.02;89.80;101985.52;211388;1296;140049;-65
2023/01/23 21:53:37;;;;;;;53.40;26.80;;;;;;;0.99;89.95;101982.21;210377;1296;139366;-64
2023/01/23 21:58:41;;;;;;;50.80;24.70;;;;;;;0.98;90.12;101984.22;212367;1298;140079;-65
2023/01/23 22:03:43;;;;;;;62.30;28.70;;;;;;;0.98;89.74;101986.30;212232;1300;141092;-65
2023/01/23 22:08:46;;;;;;;41.60;22.00;;;;;;;0.99;89.79;101990.45;211453;1290;140295;-64
2023/01/23 22:13:49;;;;;;;54.60;25.80;;;;;;;0.96;89.49;101991.02;212790;1297;140895;-68
2023/01/23 22:18:51;;;;;;;57.10;27.40;;;;;;;0.95;89.91;101985.69;212723;1301;140120;-68
2023/01/23 22:23:56;;;;;;;51.00;22.10;;;;;;;0.98;89.65;101990.50;212654;1297;139708;-68
2023/01/23 22:29:00;;;;;;;56.20;25.90;;;;;;;0.94;89.52;101998.34;212440;1300;140028;-68
2023/01/23 22:34:04;;;;;;;56.10;25.40;;;;;;;0.91;89.65;101996.35;211070;1291;139171;-68
2023/01/23 22:39:07;;;;;;;56.80;24.80;;;;;;;0.92;89.73;101999.90;211797;1297;139517;-67
2023/01/23 22:44:11;;;;;;;52.00;27.10;;;;;;;0.92;89.48;102003.10;210766;1297;139520;-65
2023/01/23 22:49:14;;;;;;;50.70;24.10;;;;;;;0.90;89.92;101997.80;210673;1284;140608;-66
2023/01/23 22:54:17;;;;;;;56.00;26.70;;;;;;;0.88;89.92;101995.57;210608;1298;139772;-66
2023/01/23 22:59:21;;;;;;;65.30;31.60;;;;;;;0.88;90.00;102001.87;210200;1292;142111;-65
2023/01/23 23:04:25;;;;;;;59.70;26.10;;;;;;;0.87;89.70;102003.52;211268;1296;140500;-66
2023/01/23 23:09:27;;;;;;;58.00;24.50;;;;;;;0.86;90.03;102004.30;211544;1297;139160;-65
2023/01/23 23:14:30;;;;;;;63.10;23.70;;;;;;;0.84;90.14;101998.27;210232;1294;139604;-65
2023/01/23 23:19:33;;;;;;;52.70;24.30;;;;;;;0.82;90.20;101998.58;210276;1291;140109;-64
2023/01/23 23:24:36;;;;;;;54.80;26.50;;;;;;;0.83;90.59;101999.96;210869;1292;140063;-66
2023/01/23 23:29:39;;;;;;;56.90;26.70;;;;;;;0.80;89.96;102001.89;210400;1299;139631;-64
2023/01/23 23:34:44;;;;;;;56.50;24.50;;;;;;;0.77;90.18;102008.61;211627;1298;141354;-65
2023/01/23 23:39:47;;;;;;;51.90;24.20;;;;;;;0.73;90.00;102004.69;210195;1297;139873;-65
2023/01/23 23:44:51;;;;;;;54.90;25.00;;;;;;;0.73;90.20;102006.64;210815;1297;141329;-65
2023/01/23 23:49:54;;;;;;;57.70;24.80;;;;;;;0.74;90.45;102002.02;211496;1300;139820;-65